Time;durP1;ratioP1;P1;durP2;ratioP2;P2;SDS_P1;SDS_P2;PMS_P1;PMS_P2;Temp;Humidity;BMP_temperature;BMP_pressure;BME280_temperature;BME280_humidity;BME280_pressure;Samples;Min_cycle;Max_cycle;Signal;HPM_P1;HPM_P2
2022/08/04 00:01:58;;;;;;;;;;;24.00;99.90;;;;;;5004359;28;19933;-69
2022/08/04 00:04:31;;;;;;;;;;;24.00;99.90;;;;;;5001480;28;19926;-69
2022/08/04 00:07:01;;;;;;;;;;;23.90;99.90;;;;;;4999565;28;20392;-68
2022/08/04 00:09:30;;;;;;;;;;;23.90;99.90;;;;;;4998015;28;19933;-68
2022/08/04 00:11:58;;;;;;;;;;;23.90;99.90;;;;;;5000452;28;19930;-69
2022/08/04 00:14:28;;;;;;;;;;;23.80;99.90;;;;;;5025004;28;19929;-67
2022/08/04 00:16:55;;;;;;;;;;;23.80;99.90;;;;;;5011103;28;19926;-67
2022/08/04 00:19:26;;;;;;;;;;;23.80;99.90;;;;;;4998447;28;19930;-68
2022/08/04 00:21:56;;;;;;;;;;;23.70;99.90;;;;;;5002069;28;19926;-68
2022/08/04 00:24:23;;;;;;;;;;;23.70;99.90;;;;;;5004989;28;19926;-67
2022/08/04 00:26:52;;;;;;;;;;;23.70;99.90;;;;;;5001270;28;19925;-68
2022/08/04 00:29:18;;;;;;;;;;;23.70;99.90;;;;;;4997244;28;19925;-68
2022/08/04 00:31:48;;;;;;;;;;;23.70;99.90;;;;;;5015921;28;19932;-68
2022/08/04 00:34:15;;;;;;;;;;;23.80;99.90;;;;;;5019787;28;19925;-69
2022/08/04 00:36:43;;;;;;;;;;;23.80;99.90;;;;;;5016255;28;20381;-69
2022/08/04 00:39:12;;;;;;;;;;;23.50;99.90;;;;;;5006585;28;19930;-68
2022/08/04 00:41:44;;;;;;;;;;;23.30;99.90;;;;;;5006226;28;19956;-68
2022/08/04 00:44:17;;;;;;;;;;;23.10;99.90;;;;;;5001436;28;19925;-68
2022/08/04 00:46:54;;;;;;;;;;;23.00;99.90;;;;;;5006910;28;19929;-68
2022/08/04 00:49:35;;;;;;;;;;;22.90;99.90;;;;;;5005930;28;19930;-68
2022/08/04 00:52:09;;;;;;;;;;;22.90;99.90;;;;;;5002215;28;19925;-69
2022/08/04 00:54:41;;;;;;;;;;;22.90;99.90;;;;;;4999162;28;19930;-68
2022/08/04 00:57:23;;;;;;;;;;;22.90;99.90;;;;;;5022972;28;19925;-69
2022/08/04 00:59:59;;;;;;;;;;;22.90;99.90;;;;;;5023242;28;19937;-68
2022/08/04 01:02:32;;;;;;;;;;;22.90;99.90;;;;;;5004664;28;19948;-68
2022/08/04 01:05:03;;;;;;;;;;;22.90;99.90;;;;;;5003006;28;19980;-68
2022/08/04 01:07:37;;;;;;;;;;;22.90;99.90;;;;;;4991078;28;19925;-66
2022/08/04 01:10:06;;;;;;;;;;;22.80;99.90;;;;;;5000298;28;20344;-68
2022/08/04 01:12:41;;;;;;;;;;;22.80;99.90;;;;;;5000342;28;20309;-68
2022/08/04 01:15:16;;;;;;;;;;;22.70;99.90;;;;;;5019191;28;19925;-68
2022/08/04 01:17:49;;;;;;;;;;;22.60;99.90;;;;;;5024781;28;19932;-70
2022/08/04 01:20:20;;;;;;;;;;;22.60;99.90;;;;;;5015616;28;20360;-69
2022/08/04 01:22:59;;;;;;;;;;;22.60;99.90;;;;;;5007826;28;20352;-68
2022/08/04 01:25:33;;;;;;;;;;;22.60;99.90;;;;;;5005523;28;19937;-68
2022/08/04 01:28:09;;;;;;;;;;;22.60;99.90;;;;;;5002532;28;19933;-68
2022/08/04 01:30:40;;;;;;;;;;;22.50;99.90;;;;;;5016560;28;19930;-69
2022/08/04 01:33:08;;;;;;;;;;;22.50;99.90;;;;;;4998784;28;19933;-68
2022/08/04 01:35:36;;;;;;;;;;;22.40;99.90;;;;;;5000319;28;20443;-68
2022/08/04 01:38:09;;;;;;;;;;;22.30;99.90;;;;;;5019445;28;19925;-68
2022/08/04 01:40:37;;;;;;;;;;;22.30;99.90;;;;;;5020888;28;20349;-69
2022/08/04 01:43:04;;;;;;;;;;;22.30;99.90;;;;;;5001604;28;19930;-69
2022/08/04 01:45:31;;;;;;;;;;;22.20;99.90;;;;;;5004233;28;20016;-69
2022/08/04 01:48:01;;;;;;;;;;;22.20;99.90;;;;;;5001816;28;19988;-68
2022/08/04 01:50:32;;;;;;;;;;;22.10;99.90;;;;;;5006013;28;19929;-68
2022/08/04 01:52:59;;;;;;;;;;;22.00;99.90;;;;;;5018049;28;19952;-68
2022/08/04 01:55:28;;;;;;;;;;;22.00;99.90;;;;;;5026937;28;20309;-68
2022/08/04 01:57:57;;;;;;;;;;;21.90;99.90;;;;;;5021086;28;19925;-68
2022/08/04 02:00:26;;;;;;;;;;;21.90;99.90;;;;;;5002743;28;19925;-68
2022/08/04 02:02:53;;;;;;;;;;;21.70;99.90;;;;;;4999855;28;19926;-68
2022/08/04 02:05:22;;;;;;;;;;;21.60;99.90;;;;;;5003188;28;19929;-68
2022/08/04 02:07:55;;;;;;;;;;;21.60;99.90;;;;;;5002916;28;19996;-68
2022/08/04 02:10:27;;;;;;;;;;;21.60;99.90;;;;;;4999942;28;19926;-69
2022/08/04 02:12:59;;;;;;;;;;;21.50;99.90;;;;;;5006227;28;20359;-68
2022/08/04 02:15:31;;;;;;;;;;;21.50;99.90;;;;;;5001260;28;19937;-68
2022/08/04 02:18:03;;;;;;;;;;;21.40;99.90;;;;;;5014804;28;19929;-69
2022/08/04 02:20:33;;;;;;;;;;;21.40;99.90;;;;;;5007922;28;20404;-68
2022/08/04 02:23:01;;;;;;;;;;;21.30;99.90;;;;;;5003542;28;20028;-68
2022/08/04 02:25:29;;;;;;;;;;;21.30;99.90;;;;;;5002695;28;19933;-68
2022/08/04 02:28:00;;;;;;;;;;;21.30;99.90;;;;;;5004379;28;19926;-68
2022/08/04 02:30:28;;;;;;;;;;;21.20;99.90;;;;;;5018092;28;20048;-68
2022/08/04 02:33:00;;;;;;;;;;;21.20;99.90;;;;;;5023745;28;20455;-68
2022/08/04 02:35:27;;;;;;;;;;;21.20;99.90;;;;;;5004315;28;19925;-67
2022/08/04 02:38:01;;;;;;;;;;;21.10;99.90;;;;;;5019316;28;19925;-68
2022/08/04 02:40:30;;;;;;;;;;;21.10;99.90;;;;;;4998818;28;20381;-68
2022/08/04 02:42:58;;;;;;;;;;;21.10;99.90;;;;;;5013154;28;20373;-69
2022/08/04 02:45:25;;;;;;;;;;;21.10;99.90;;;;;;4998840;28;19980;-68
2022/08/04 02:47:53;;;;;;;;;;;21.10;99.90;;;;;;5015210;28;19925;-69
2022/08/04 02:50:20;;;;;;;;;;;21.10;99.90;;;;;;5021656;28;19926;-68
2022/08/04 02:52:48;;;;;;;;;;;21.10;99.90;;;;;;5000368;28;19925;-69
2022/08/04 02:55:17;;;;;;;;;;;21.10;99.90;;;;;;5020143;28;20400;-69
2022/08/04 02:57:45;;;;;;;;;;;21.10;99.90;;;;;;5003827;28;19976;-66
2022/08/04 03:00:13;;;;;;;;;;;21.10;99.90;;;;;;5001564;28;19929;-68
2022/08/04 03:02:45;;;;;;;;;;;21.10;99.90;;;;;;4998952;28;19925;-68
2022/08/04 03:05:17;;;;;;;;;;;21.00;99.90;;;;;;5000320;28;19925;-69
2022/08/04 03:07:57;;;;;;;;;;;20.90;99.90;;;;;;5020547;28;20397;-68
2022/08/04 03:10:36;;;;;;;;;;;20.90;99.90;;;;;;4998757;28;19929;-68
2022/08/04 03:13:24;;;;;;;;;;;20.90;99.90;;;;;;4998725;28;19980;-68
2022/08/04 03:16:00;;;;;;;;;;;20.80;99.90;;;;;;5003866;28;19926;-68
2022/08/04 03:18:37;;;;;;;;;;;20.80;99.90;;;;;;4998924;28;19925;-68
2022/08/04 03:21:22;;;;;;;;;;;20.70;99.90;;;;;;4996271;28;19926;-68
2022/08/04 03:24:05;;;;;;;;;;;20.70;99.90;;;;;;4997761;28;19933;-68
2022/08/04 03:26:46;;;;;;;;;;;20.60;99.90;;;;;;5018932;28;19926;-68
2022/08/04 03:29:21;;;;;;;;;;;20.60;99.90;;;;;;5019651;28;19956;-68
2022/08/04 03:32:06;;;;;;;;;;;20.50;99.90;;;;;;5002460;28;19925;-68
2022/08/04 03:34:42;;;;;;;;;;;20.40;99.90;;;;;;4988793;28;19975;-68
2022/08/04 03:37:19;;;;;;;;;;;20.40;99.90;;;;;;5001184;28;19969;-68
2022/08/04 03:40:14;;;;;;;;;;;20.30;99.90;;;;;;4997271;28;19930;-68
2022/08/04 03:42:52;;;;;;;;;;;20.30;99.90;;;;;;4995921;28;19926;-68
2022/08/04 03:45:33;;;;;;;;;;;20.30;99.90;;;;;;4999769;28;20345;-67
2022/08/04 03:48:07;;;;;;;;;;;20.40;99.90;;;;;;5014343;28;20061;-69
2022/08/04 03:50:41;;;;;;;;;;;20.30;99.90;;;;;;4999424;28;19956;-68
2022/08/04 03:53:15;;;;;;;;;;;20.30;99.90;;;;;;4998417;28;19929;-68
2022/08/04 03:55:51;;;;;;;;;;;20.30;99.90;;;;;;5001261;28;19932;-68
2022/08/04 03:58:31;;;;;;;;;;;20.30;99.90;;;;;;4998088;28;19933;-68
2022/08/04 04:01:04;;;;;;;;;;;20.30;99.90;;;;;;4994966;28;19925;-67
2022/08/04 04:03:58;;;;;;;;;;;20.20;99.90;;;;;;4995723;28;19972;-68
2022/08/04 04:06:55;;;;;;;;;;;20.20;99.90;;;;;;4950010;28;19926;-69
2022/08/04 04:09:47;;;;;;;;;;;20.10;99.90;;;;;;5003596;28;20397;-68
2022/08/04 04:12:26;;;;;;;;;;;20.00;99.90;;;;;;5000882;28;20344;-68
2022/08/04 04:14:58;;;;;;;;;;;20.00;99.90;;;;;;4999378;28;19979;-69
2022/08/04 04:17:43;;;;;;;;;;;20.10;99.90;;;;;;5004821;28;20471;-68
2022/08/04 04:20:21;;;;;;;;;;;20.10;99.90;;;;;;4993644;28;19983;-68
2022/08/04 04:23:00;;;;;;;;;;;20.10;99.90;;;;;;5022514;28;19925;-68
2022/08/04 04:25:35;;;;;;;;;;;20.10;99.90;;;;;;5005605;28;20392;-68
2022/08/04 04:28:19;;;;;;;;;;;20.20;99.90;;;;;;5001257;28;19925;-66
2022/08/04 04:30:52;;;;;;;;;;;20.20;99.90;;;;;;5018698;28;19932;-68
2022/08/04 04:33:31;;;;;;;;;;;20.20;99.90;;;;;;5007159;28;19929;-67
2022/08/04 04:36:03;;;;;;;;;;;20.20;99.90;;;;;;4995814;28;19925;-67
2022/08/04 04:38:57;;;;;;;;;;;20.20;99.90;;;;;;5008751;28;19929;-67
2022/08/04 04:41:36;;;;;;;;;;;20.10;99.90;;;;;;5003669;28;19971;-67
2022/08/04 04:44:17;;;;;;;;;;;20.10;99.90;;;;;;4998049;28;19971;-68
2022/08/04 04:46:47;;;;;;;;;;;20.10;99.90;;;;;;5013107;28;19926;-67
2022/08/04 04:49:18;;;;;;;;;;;20.00;99.90;;;;;;5003746;28;19925;-67
2022/08/04 04:51:50;;;;;;;;;;;20.00;99.90;;;;;;5001343;28;20013;-69
2022/08/04 04:54:23;;;;;;;;;;;20.00;99.90;;;;;;4991644;28;19926;-68
2022/08/04 04:56:53;;;;;;;;;;;20.00;99.90;;;;;;5001409;28;19984;-68
2022/08/04 04:59:21;;;;;;;;;;;20.10;99.90;;;;;;5015134;28;19945;-69
2022/08/04 05:02:05;;;;;;;;;;;20.10;99.90;;;;;;4997788;28;19960;-71
2022/08/04 05:04:50;;;;;;;;;;;20.10;99.90;;;;;;5017753;28;19925;-70
2022/08/04 05:07:41;;;;;;;;;;;20.20;99.90;;;;;;5006835;28;19981;-69
2022/08/04 05:10:15;;;;;;;;;;;20.30;99.90;;;;;;4998470;28;19980;-70
2022/08/04 05:12:45;;;;;;;;;;;20.40;99.90;;;;;;5004974;28;19929;-70
2022/08/04 05:15:12;;;;;;;;;;;20.50;99.90;;;;;;4997819;28;20460;-69
2022/08/04 05:17:43;;;;;;;;;;;20.60;99.90;;;;;;4995876;28;20102;-71
2022/08/04 05:20:13;;;;;;;;;;;20.60;99.90;;;;;;4995592;28;20056;-70
2022/08/04 05:22:42;;;;;;;;;;;20.60;99.90;;;;;;4998005;28;19929;-70
2022/08/04 05:25:13;;;;;;;;;;;20.70;99.90;;;;;;5019471;28;19929;-70
2022/08/04 05:27:45;;;;;;;;;;;20.80;99.90;;;;;;5000088;28;19929;-73
2022/08/04 05:30:12;;;;;;;;;;;20.80;99.90;;;;;;5002714;28;20450;-73
2022/08/04 05:32:46;;;;;;;;;;;20.90;99.90;;;;;;5011543;28;19929;-73
2022/08/04 05:35:16;;;;;;;;;;;21.00;99.90;;;;;;4997287;28;19925;-74
2022/08/04 05:37:44;;;;;;;;;;;21.10;99.90;;;;;;5019283;28;19929;-74
2022/08/04 05:40:12;;;;;;;;;;;21.20;99.90;;;;;;5003135;28;19929;-73
2022/08/04 05:42:40;;;;;;;;;;;21.40;99.90;;;;;;4993464;28;20003;-73
2022/08/04 05:45:07;;;;;;;;;;;21.50;99.90;;;;;;5008234;28;19972;-72
2022/08/04 05:47:35;;;;;;;;;;;21.60;99.90;;;;;;4996859;28;20004;-74
2022/08/04 05:50:05;;;;;;;;;;;21.70;99.90;;;;;;5010771;28;19955;-71
2022/08/04 05:52:32;;;;;;;;;;;21.80;99.90;;;;;;5024302;28;20352;-70
2022/08/04 05:54:59;;;;;;;;;;;21.90;99.90;;;;;;5019110;28;20463;-70
2022/08/04 05:57:26;;;;;;;;;;;22.00;99.90;;;;;;4987263;28;19940;-70
2022/08/04 05:59:55;;;;;;;;;;;22.10;99.90;;;;;;5012310;28;19948;-72
2022/08/04 06:02:23;;;;;;;;;;;22.20;99.90;;;;;;4990000;28;20533;-80
2022/08/04 06:04:51;;;;;;;;;;;22.30;99.90;;;;;;5000028;28;19957;-74
2022/08/04 06:07:19;;;;;;;;;;;22.40;99.90;;;;;;4997616;28;19926;-75
2022/08/04 06:09:46;;;;;;;;;;;22.50;99.90;;;;;;4991213;28;19936;-72
2022/08/04 06:12:15;;;;;;;;;;;22.60;99.90;;;;;;5006416;28;19925;-73
2022/08/04 06:14:42;;;;;;;;;;;22.80;99.90;;;;;;5004703;28;20559;-74
2022/08/04 06:17:11;;;;;;;;;;;22.90;99.90;;;;;;5007073;28;20416;-72
2022/08/04 06:19:39;;;;;;;;;;;23.00;99.90;;;;;;5019739;28;19925;-73
2022/08/04 06:22:07;;;;;;;;;;;23.10;99.90;;;;;;5013593;28;19929;-73
2022/08/04 06:24:37;;;;;;;;;;;23.20;99.90;;;;;;5023961;28;19932;-73
2022/08/04 06:27:05;;;;;;;;;;;23.30;99.90;;;;;;4996529;28;20344;-73
2022/08/04 06:29:35;;;;;;;;;;;23.40;99.90;;;;;;5000387;28;20343;-73
2022/08/04 06:32:12;;;;;;;;;;;23.60;99.90;;;;;;4992104;28;19932;-72
2022/08/04 06:34:39;;;;;;;;;;;23.70;99.90;;;;;;4988592;28;19930;-73
2022/08/04 06:37:07;;;;;;;;;;;23.90;99.90;;;;;;4991720;28;20041;-72
2022/08/04 06:39:36;;;;;;;;;;;24.10;99.90;;;;;;4995154;28;19926;-72
2022/08/04 06:42:03;;;;;;;;;;;24.20;99.90;;;;;;5001093;28;19983;-71
2022/08/04 06:44:30;;;;;;;;;;;24.30;99.90;;;;;;4995016;28;19995;-72
2022/08/04 06:46:58;;;;;;;;;;;24.40;99.90;;;;;;5012359;28;19929;-72
2022/08/04 06:49:25;;;;;;;;;;;24.60;99.90;;;;;;5009315;28;19925;-72
2022/08/04 06:51:52;;;;;;;;;;;24.70;99.90;;;;;;4999484;28;19976;-72
2022/08/04 06:54:19;;;;;;;;;;;24.90;99.90;;;;;;5010144;28;19925;-72
2022/08/04 06:56:48;;;;;;;;;;;25.00;99.90;;;;;;4987283;28;20455;-71
2022/08/04 06:59:17;;;;;;;;;;;25.20;99.90;;;;;;4994253;28;19952;-71
2022/08/04 07:01:46;;;;;;;;;;;25.30;99.90;;;;;;5001748;28;20388;-71
2022/08/04 07:04:13;;;;;;;;;;;25.50;99.90;;;;;;4995529;28;20467;-72
2022/08/04 07:06:39;;;;;;;;;;;25.70;99.90;;;;;;4987204;28;19925;-71
2022/08/04 07:09:06;;;;;;;;;;;25.80;99.90;;;;;;4994715;28;19930;-72
2022/08/04 07:11:34;;;;;;;;;;;26.00;99.90;;;;;;4999392;28;20353;-72
2022/08/04 07:14:02;;;;;;;;;;;26.10;99.90;;;;;;5003749;28;19977;-71
2022/08/04 07:16:30;;;;;;;;;;;26.20;99.90;;;;;;4996534;28;19930;-70
2022/08/04 07:18:57;;;;;;;;;;;26.40;99.90;;;;;;4996646;28;20463;-71
2022/08/04 07:21:26;;;;;;;;;;;26.50;99.90;;;;;;4998922;28;19926;-71
2022/08/04 07:23:52;;;;;;;;;;;26.60;99.90;;;;;;5005358;28;20443;-71
2022/08/04 07:26:19;;;;;;;;;;;26.80;99.90;;;;;;5003303;28;20003;-71
2022/08/04 07:28:46;;;;;;;;;;;26.90;99.90;;;;;;5002343;28;19926;-71
2022/08/04 07:31:16;;;;;;;;;;;27.00;99.90;;;;;;4995339;28;19980;-71
2022/08/04 07:33:43;;;;;;;;;;;27.20;99.90;;;;;;5019237;28;20137;-71
2022/08/04 07:36:10;;;;;;;;;;;27.30;99.90;;;;;;4999090;28;20352;-71
2022/08/04 07:38:37;;;;;;;;;;;27.40;99.90;;;;;;4993591;28;20413;-71
2022/08/04 07:41:04;;;;;;;;;;;27.50;99.90;;;;;;5004892;28;19926;-71
2022/08/04 07:43:31;;;;;;;;;;;27.70;99.90;;;;;;5003535;28;19926;-71
2022/08/04 07:45:58;;;;;;;;;;;27.80;99.90;;;;;;5029694;28;19979;-72
2022/08/04 07:48:26;;;;;;;;;;;28.00;99.90;;;;;;5007155;28;19975;-71
2022/08/04 07:50:53;;;;;;;;;;;28.20;99.90;;;;;;5029584;28;19925;-71
2022/08/04 07:53:21;;;;;;;;;;;28.40;99.90;;;;;;5004865;28;20329;-71
2022/08/04 07:55:48;;;;;;;;;;;28.60;99.90;;;;;;5020269;28;20409;-71
2022/08/04 07:58:14;;;;;;;;;;;28.80;99.90;;;;;;5022097;28;20385;-72
2022/08/04 08:00:44;;;;;;;;;;;29.10;99.90;;;;;;5006259;28;19957;-71
2022/08/04 08:03:11;;;;;;;;;;;29.30;99.90;;;;;;5012881;28;19926;-71
2022/08/04 08:05:39;;;;;;;;;;;29.60;99.90;;;;;;5019891;28;20023;-72
2022/08/04 08:08:06;;;;;;;;;;;29.70;99.90;;;;;;5021170;28;19925;-71
2022/08/04 08:10:33;;;;;;;;;;;29.90;99.90;;;;;;5001546;28;20007;-71
2022/08/04 08:13:00;;;;;;;;;;;30.00;99.90;;;;;;5000040;28;20000;-72
2022/08/04 08:15:27;;;;;;;;;;;30.20;99.90;;;;;;4999205;28;19925;-75
2022/08/04 08:17:54;;;;;;;;;;;30.40;99.90;;;;;;4991745;28;20351;-72
2022/08/04 08:20:21;;;;;;;;;;;30.70;99.90;;;;;;5001378;28;20305;-71
2022/08/04 08:22:49;;;;;;;;;;;31.00;99.90;;;;;;4997332;28;20359;-71
2022/08/04 08:25:16;;;;;;;;;;;31.30;99.90;;;;;;5002979;28;19929;-72
2022/08/04 08:27:43;;;;;;;;;;;31.50;99.90;;;;;;5003865;28;19980;-70
2022/08/04 08:30:10;;;;;;;;;;;31.70;99.90;;;;;;5001470;28;19952;-71
2022/08/04 08:32:37;;;;;;;;;;;31.60;99.90;;;;;;5005349;28;20485;-71
2022/08/04 08:35:04;;;;;;;;;;;31.60;99.90;;;;;;4995948;28;19926;-71
2022/08/04 08:37:34;;;;;;;;;;;31.70;99.90;;;;;;5022315;28;19926;-72
2022/08/04 08:40:10;;;;;;;;;;;31.80;99.90;;;;;;5026114;28;20401;-72
2022/08/04 08:43:05;;;;;;;;;;;31.80;99.90;;;;;;5004072;28;19929;-72
2022/08/04 08:45:56;;;;;;;;;;;31.80;99.90;;;;;;5018430;28;19988;-72
2022/08/04 08:48:37;;;;;;;;;;;31.80;99.90;;;;;;4997372;28;20384;-71
2022/08/04 08:51:18;;;;;;;;;;;32.00;99.90;;;;;;4992728;28;20376;-72
2022/08/04 08:53:50;;;;;;;;;;;32.00;99.90;;;;;;4994582;28;19925;-72
2022/08/04 08:56:26;;;;;;;;;;;32.10;99.90;;;;;;4995108;28;19993;-74
2022/08/04 08:59:01;;;;;;;;;;;32.10;99.90;;;;;;5005824;28;20378;-74
2022/08/04 09:01:40;;;;;;;;;;;32.10;99.90;;;;;;4995399;28;20377;-73
2022/08/04 09:04:28;;;;;;;;;;;32.20;99.90;;;;;;4998857;28;20024;-71
2022/08/04 09:07:01;;;;;;;;;;;32.20;99.90;;;;;;5016301;28;19934;-71
2022/08/04 09:09:41;;;;;;;;;;;32.30;99.90;;;;;;5001792;28;19926;-71
2022/08/04 09:12:14;;;;;;;;;;;32.50;99.90;;;;;;5013033;28;20378;-71
2022/08/04 09:14:44;;;;;;;;;;;32.60;99.90;;;;;;5002636;28;19971;-72
2022/08/04 09:17:14;;;;;;;;;;;32.80;99.90;;;;;;4997427;28;20483;-71
2022/08/04 09:19:45;;;;;;;;;;;32.80;99.90;;;;;;5023857;28;19925;-70
2022/08/04 09:22:15;;;;;;;;;;;32.80;99.90;;;;;;5000328;28;19932;-72
2022/08/04 09:24:47;;;;;;;;;;;32.70;99.90;;;;;;5002715;28;19926;-72
2022/08/04 09:27:18;;;;;;;;;;;32.80;99.90;;;;;;5002849;28;19957;-72
2022/08/04 09:29:47;;;;;;;;;;;32.80;99.90;;;;;;5000145;28;19926;-71
2022/08/04 09:32:19;;;;;;;;;;;32.70;99.90;;;;;;5019050;28;20373;-67
2022/08/04 09:34:50;;;;;;;;;;;32.80;99.90;;;;;;5001096;28;19929;-71
2022/08/04 09:37:22;;;;;;;;;;;33.00;99.90;;;;;;4993031;28;19972;-71
2022/08/04 09:39:52;;;;;;;;;;;32.90;99.90;;;;;;5001252;28;19925;-71
2022/08/04 09:42:26;;;;;;;;;;;32.80;99.90;;;;;;5000312;28;19985;-71
2022/08/04 09:44:57;;;;;;;;;;;32.80;99.90;;;;;;5000451;28;20025;-72
2022/08/04 09:47:26;;;;;;;;;;;32.80;99.90;;;;;;4999940;28;19929;-70
2022/08/04 09:49:57;;;;;;;;;;;32.80;99.90;;;;;;4998938;28;19987;-71
2022/08/04 09:52:28;;;;;;;;;;;33.00;99.90;;;;;;5002880;28;19976;-71
2022/08/04 09:55:02;;;;;;;;;;;33.10;99.90;;;;;;5009064;28;20451;-71
2022/08/04 09:57:38;;;;;;;;;;;33.00;99.90;;;;;;4996227;28;19925;-71
2022/08/04 10:00:08;;;;;;;;;;;33.00;99.90;;;;;;4996087;28;19926;-71
2022/08/04 10:02:41;;;;;;;;;;;32.80;99.90;;;;;;4994064;28;19944;-72
2022/08/04 10:05:11;;;;;;;;;;;32.70;99.90;;;;;;5003540;28;19926;-73
2022/08/04 10:07:43;;;;;;;;;;;32.60;99.90;;;;;;5021116;28;19930;-73
2022/08/04 10:10:15;;;;;;;;;;;32.30;99.90;;;;;;5018677;28;19972;-73
2022/08/04 10:12:51;;;;;;;;;;;32.40;99.90;;;;;;4998495;28;19980;-73
2022/08/04 10:15:20;;;;;;;;;;;32.60;99.90;;;;;;5004960;28;19926;-73
2022/08/04 10:18:03;;;;;;;;;;;32.70;99.90;;;;;;5015900;28;19926;-73
2022/08/04 10:20:45;;;;;;;;;;;33.00;99.90;;;;;;5003933;28;19925;-73
2022/08/04 10:23:15;;;;;;;;;;;33.00;99.90;;;;;;5000443;28;19972;-70
2022/08/04 10:25:49;;;;;;;;;;;32.90;99.90;;;;;;5002204;28;19995;-71
2022/08/04 10:28:19;;;;;;;;;;;32.80;99.90;;;;;;5016289;28;19987;-72
2022/08/04 10:30:48;;;;;;;;;;;32.70;99.90;;;;;;5000241;28;19926;-73
2022/08/04 10:33:21;;;;;;;;;;;32.30;99.90;;;;;;5000701;28;19929;-73
2022/08/04 10:35:49;;;;;;;;;;;32.60;99.90;;;;;;5007157;28;19974;-73
2022/08/04 10:38:18;;;;;;;;;;;32.80;99.90;;;;;;5003464;28;19956;-73
2022/08/04 10:40:46;;;;;;;;;;;33.00;99.90;;;;;;4996290;28;20474;-72
2022/08/04 10:43:20;;;;;;;;;;;33.00;99.90;;;;;;5010928;28;19929;-71
2022/08/04 10:45:49;;;;;;;;;;;32.70;99.90;;;;;;5006055;28;20015;-71
2022/08/04 10:48:20;;;;;;;;;;;32.20;99.90;;;;;;4998809;28;20144;-71
2022/08/04 10:50:50;;;;;;;;;;;32.00;99.90;;;;;;5013005;28;19976;-71
2022/08/04 10:53:19;;;;;;;;;;;31.70;99.90;;;;;;4993593;28;20375;-71
2022/08/04 10:55:49;;;;;;;;;;;31.80;99.90;;;;;;4993076;28;19937;-70
2022/08/04 10:58:19;;;;;;;;;;;31.60;99.90;;;;;;4997726;28;19932;-70
2022/08/04 11:00:47;;;;;;;;;;;31.50;99.90;;;;;;5013800;28;19926;-72
2022/08/04 11:03:19;;;;;;;;;;;31.30;99.90;;;;;;5016558;28;20328;-70
2022/08/04 11:05:48;;;;;;;;;;;31.10;99.90;;;;;;4989458;28;19937;-71
2022/08/04 11:08:17;;;;;;;;;;;31.00;99.90;;;;;;5001407;28;20305;-71
2022/08/04 11:10:46;;;;;;;;;;;30.90;99.90;;;;;;5016940;28;19932;-70
2022/08/04 11:13:15;;;;;;;;;;;30.70;99.90;;;;;;5002583;28;19926;-70
2022/08/04 11:15:46;;;;;;;;;;;30.40;99.90;;;;;;5002065;28;19926;-70
2022/08/04 11:18:14;;;;;;;;;;;30.20;99.90;;;;;;5003224;28;19925;-70
2022/08/04 11:20:45;;;;;;;;;;;29.90;99.90;;;;;;5016028;28;19926;-70
2022/08/04 11:23:13;;;;;;;;;;;29.60;99.90;;;;;;5004781;28;19926;-71
2022/08/04 11:25:44;;;;;;;;;;;29.60;99.90;;;;;;5015644;28;19933;-70
2022/08/04 11:28:13;;;;;;;;;;;29.60;99.90;;;;;;5001337;28;20364;-70
2022/08/04 11:30:42;;;;;;;;;;;29.50;99.90;;;;;;5009398;28;20455;-71
2022/08/04 11:33:16;;;;;;;;;;;29.50;99.90;;;;;;5017817;28;20540;-71
2022/08/04 11:35:45;;;;;;;;;;;29.60;99.90;;;;;;4999050;28;20354;-70
2022/08/04 11:38:17;;;;;;;;;;;30.00;99.90;;;;;;5016696;28;19929;-71
2022/08/04 11:40:47;;;;;;;;;;;30.70;99.90;;;;;;5010702;28;19960;-71
2022/08/04 11:43:16;;;;;;;;;;;31.60;99.90;;;;;;4994379;28;19972;-71
2022/08/04 11:45:46;;;;;;;;;;;31.90;99.90;;;;;;5018650;28;19964;-71
2022/08/04 11:48:17;;;;;;;;;;;32.10;99.90;;;;;;5013822;28;19926;-71
2022/08/04 11:50:47;;;;;;;;;;;33.00;99.90;;;;;;5002908;28;19961;-70
2022/08/04 11:53:18;;;;;;;;;;;32.10;99.90;;;;;;5000714;28;20308;-70
2022/08/04 11:55:45;;;;;;;;;;;31.50;99.90;;;;;;5001866;28;19925;-70
2022/08/04 11:58:12;;;;;;;;;;;31.00;99.90;;;;;;5002577;28;20352;-70
2022/08/04 12:00:42;;;;;;;;;;;30.50;99.90;;;;;;4994279;28;19926;-71
2022/08/04 12:03:15;;;;;;;;;;;30.50;99.90;;;;;;5003973;28;20016;-71
2022/08/04 12:05:48;;;;;;;;;;;30.60;99.90;;;;;;4994790;28;20360;-71
2022/08/04 12:08:24;;;;;;;;;;;31.30;99.90;;;;;;5019078;28;19925;-70
2022/08/04 12:10:57;;;;;;;;;;;32.00;99.90;;;;;;4998726;28;19933;-70
2022/08/04 12:13:28;;;;;;;;;;;32.60;99.90;;;;;;4998795;28;20386;-70
2022/08/04 12:15:59;;;;;;;;;;;33.50;99.90;;;;;;4993242;28;19925;-71
2022/08/04 12:18:30;;;;;;;;;;;34.90;99.90;;;;;;5004289;28;19934;-72
2022/08/04 12:20:59;;;;;;;;;;;36.10;99.90;;;;;;4990977;28;20435;-71
2022/08/04 12:23:30;;;;;;;;;;;35.90;99.90;;;;;;5000748;28;19984;-71
2022/08/04 12:26:00;;;;;;;;;;;35.60;99.90;;;;;;5000327;28;19961;-71
2022/08/04 12:28:29;;;;;;;;;;;34.80;99.90;;;;;;5016239;28;19930;-71
2022/08/04 12:30:59;;;;;;;;;;;34.60;99.90;;;;;;5016921;28;19971;-71
2022/08/04 12:33:31;;;;;;;;;;;33.90;99.90;;;;;;5001097;28;19933;-71
2022/08/04 12:36:02;;;;;;;;;;;33.30;99.90;;;;;;4993322;28;19925;-71
2022/08/04 12:38:32;;;;;;;;;;;33.10;99.90;;;;;;4997177;28;20017;-71
2022/08/04 12:41:01;;;;;;;;;;;33.80;99.90;;;;;;4994525;28;19926;-71
2022/08/04 12:43:31;;;;;;;;;;;34.20;99.90;;;;;;5019087;28;19933;-71
2022/08/04 12:46:00;;;;;;;;;;;34.80;99.90;;;;;;4996342;28;19926;-70
2022/08/04 12:48:27;;;;;;;;;;;34.60;99.90;;;;;;5017931;28;19926;-70
2022/08/04 12:50:56;;;;;;;;;;;34.70;99.90;;;;;;4999842;28;20398;-71
2022/08/04 12:53:26;;;;;;;;;;;35.10;99.90;;;;;;4994354;28;20072;-71
2022/08/04 12:55:54;;;;;;;;;;;36.00;99.90;;;;;;4996846;28;19925;-70
2022/08/04 12:58:22;;;;;;;;;;;35.50;99.90;;;;;;4996247;28;19925;-71
2022/08/04 13:00:53;;;;;;;;;;;34.80;99.90;;;;;;4997176;28;19934;-70
2022/08/04 13:03:20;;;;;;;;;;;34.10;99.90;;;;;;5003370;28;19926;-70
2022/08/04 13:05:48;;;;;;;;;;;33.60;99.90;;;;;;5014191;28;19926;-70
2022/08/04 13:08:20;;;;;;;;;;;33.20;99.90;;;;;;4979276;28;20494;-69
2022/08/04 13:10:49;;;;;;;;;;;32.90;99.90;;;;;;4998390;28;19933;-70
2022/08/04 13:13:17;;;;;;;;;;;32.80;99.90;;;;;;4996031;28;19925;-70
2022/08/04 13:15:54;;;;;;;;;;;32.50;99.90;;;;;;4997442;28;19925;-70
2022/08/04 13:18:21;;;;;;;;;;;32.10;99.90;;;;;;5000566;28;19952;-70
2022/08/04 13:20:48;;;;;;;;;;;31.60;99.90;;;;;;4998156;28;20304;-70
2022/08/04 13:23:16;;;;;;;;;;;31.30;99.90;;;;;;5003925;28;20364;-70
2022/08/04 13:25:44;;;;;;;;;;;31.20;99.90;;;;;;5008474;28;19929;-69
2022/08/04 13:28:15;;;;;;;;;;;31.20;99.90;;;;;;5007648;28;19929;-69
2022/08/04 13:30:45;;;;;;;;;;;31.10;99.90;;;;;;4999994;28;19926;-70
2022/08/04 13:33:12;;;;;;;;;;;31.00;99.90;;;;;;5019667;28;19933;-69
2022/08/04 13:35:42;;;;;;;;;;;30.90;99.90;;;;;;4993949;28;20032;-68
2022/08/04 13:38:11;;;;;;;;;;;30.90;99.90;;;;;;5005358;28;19984;-70
2022/08/04 13:40:39;;;;;;;;;;;30.80;99.90;;;;;;4992329;28;19960;-71
2022/08/04 13:43:06;;;;;;;;;;;30.50;99.90;;;;;;4995603;28;19925;-71
2022/08/04 13:45:35;;;;;;;;;;;30.40;99.90;;;;;;5009141;28;19925;-69
2022/08/04 13:48:02;;;;;;;;;;;30.10;99.90;;;;;;5003255;28;19948;-70
2022/08/04 13:50:30;;;;;;;;;;;30.00;99.90;;;;;;4998280;28;19975;-73
2022/08/04 13:52:58;;;;;;;;;;;29.90;99.90;;;;;;4991805;28;19975;-76
2022/08/04 13:55:25;;;;;;;;;;;29.80;99.90;;;;;;4997104;28;19979;-70
2022/08/04 13:57:57;;;;;;;;;;;29.70;99.90;;;;;;5003025;28;19925;-73
2022/08/04 14:00:25;;;;;;;;;;;29.60;99.90;;;;;;4994477;28;19999;-71
2022/08/04 14:02:59;;;;;;;;;;;29.50;99.90;;;;;;5006448;28;19925;-71
2022/08/04 14:05:27;;;;;;;;;;;29.40;99.90;;;;;;4996892;28;20405;-71
2022/08/04 14:07:54;;;;;;;;;;;29.20;99.90;;;;;;5001087;28;20389;-71
2022/08/04 14:10:22;;;;;;;;;;;29.10;99.90;;;;;;4994809;28;20393;-68
2022/08/04 14:12:50;;;;;;;;;;;28.90;99.90;;;;;;4991033;28;20404;-70
2022/08/04 14:15:38;;;;;;;;;;;28.90;99.90;;;;;;5006458;28;19975;-69
2022/08/04 14:18:20;;;;;;;;;;;28.90;99.90;;;;;;5012071;28;19926;-70
2022/08/04 14:21:01;;;;;;;;;;;28.90;99.90;;;;;;5013429;28;19933;-70
2022/08/04 14:23:27;;;;;;;;;;;29.00;99.90;;;;;;5014730;28;20409;-71
2022/08/04 14:25:54;;;;;;;;;;;29.10;99.90;;;;;;4987041;28;19929;-71
2022/08/04 14:28:27;;;;;;;;;;;29.00;99.90;;;;;;5004301;28;19929;-70
2022/08/04 14:31:09;;;;;;;;;;;28.90;99.90;;;;;;5015363;28;19980;-71
2022/08/04 14:33:41;;;;;;;;;;;28.70;99.90;;;;;;4998946;28;20385;-71
2022/08/04 14:36:08;;;;;;;;;;;28.80;99.90;;;;;;5018554;28;19933;-71
2022/08/04 14:38:41;;;;;;;;;;;28.70;99.90;;;;;;4995403;28;19926;-71
2022/08/04 14:41:08;;;;;;;;;;;28.70;99.90;;;;;;4999322;28;19944;-71